Vremea acum in Filiași - Romania

Vrei sa afli care e starea vremii acum in Mehedinti - Romania? Dorim sa iti furnizam starea vremii pentru Mehedinti - Romania. Starea vremii Mehedinti - Romania pentru astazi.

Vremea acum in Filiași

Temperatura: 9 °C

Este: Senin
Se simte ca: 8.5 °C
Innorat: 0 %
Precipitatii: 0 %
Presiune atmosferica: 1015 hPa
Umiditate: 81%
Vizibilitate: 10 km
Vantul bate din NE cu 5.4 km/h

Evolutia vremii in Filiași pe ore

Ora: 04:00
Senin
Temperatura: 11°C
Sansa de precipitatii: 0%
Ora Descriere Temp Se simte Precipitatii Umiditate Vant
00:00Senin12.3°12.4°0%72%NE 5 KM/H
01:00Senin12°11.8°0%75%NE 5.8 KM/H
02:00Senin11.7°11.4°0%78%NE 6.1 KM/H
03:00Senin11.4°10.8°0%80%NNE 7.2 KM/H
04:00Senin11°10.5°0%80%NE 6.8 KM/H
05:00Senin10.5°0%81%NE 5.4 KM/H
06:00Senin10.5°10.5°0%78%NNE 4.3 KM/H
07:00Senin11.3°11.3°0%75%N 4.7 KM/H
08:00Senin13.9°14.6°0%67%N 3.6 KM/H
09:00Senin16.3°16.3°0%60%N 1.8 KM/H
10:00Senin18.4°18.4°0%55%SSE 4.7 KM/H
11:00Senin19.9°19.9°0%52%SSE 7.2 KM/H
12:00Senin21.1°21.1°0%49%S 8.6 KM/H
13:00Senin22°24.3°0%47%SSW 9.4 KM/H
14:00Senin22.7°24.4°0%44%SSW 10.8 KM/H
15:00Senin23°24.4°0%42%SW 12.2 KM/H
16:00Senin23°24.3°0%40%SW 13 KM/H
17:00Senin22.9°24.3°0%40%SW 12.6 KM/H
18:00Senin22.4°24.4°0%45%SW 11.5 KM/H
19:00Senin20.9°20.9°0%55%SSW 8.6 KM/H
20:00Senin18.2°18.2°0%61%SSW 7.9 KM/H
21:00Patchy light rain in area with thunder16°16.1°100%62%SSW 5.4 KM/H
22:00Senin15.1°15.1°0%63%S 4 KM/H
23:00Senin14.4°15.1°0%64%SSW 4 KM/H




tutorials